Time;durP1;ratioP1;P1;durP2;ratioP2;P2;SDS_P1;SDS_P2;PMS_P1;PMS_P2;Temp;Humidity;BMP_temperature;BMP_pressure;BME280_temperature;BME280_humidity;BME280_pressure;Samples;Min_cycle;Max_cycle;Signal;HPM_P1;HPM_P2
2024/01/29 00:01:45;;;;;;;0.40;0.40;;;;;;;1.90;100.00;102347.94;5093337;28;20016;-57
2024/01/29 00:04:10;;;;;;;0.40;0.40;;;;;;;1.89;100.00;102347.81;5092812;28;20020;-57
2024/01/29 00:06:35;;;;;;;0.40;0.40;;;;;;;1.93;100.00;102340.56;5092131;28;20095;-57
2024/01/29 00:09:01;;;;;;;0.40;0.40;;;;;;;1.87;100.00;102350.19;5093074;28;20047;-57
2024/01/29 00:11:26;;;;;;;0.40;0.40;;;;;;;1.87;100.00;102351.84;5091945;28;20056;-57
2024/01/29 00:13:52;;;;;;;0.40;0.40;;;;;;;1.80;100.00;102342.81;5092297;28;20056;-57
2024/01/29 00:16:17;;;;;;;0.40;0.40;;;;;;;1.77;100.00;102340.88;5092892;28;20020;-58
2024/01/29 00:18:42;;;;;;;0.50;0.50;;;;;;;1.75;100.00;102344.03;5093261;28;20025;-57
2024/01/29 00:21:08;;;;;;;0.40;0.40;;;;;;;1.83;100.00;102348.16;5092222;28;20024;-57
2024/01/29 00:23:33;;;;;;;0.40;0.40;;;;;;;1.76;100.00;102344.16;5092653;28;20494;-56
2024/01/29 00:25:58;;;;;;;0.40;0.40;;;;;;;1.78;100.00;102346.84;5092414;28;20456;-57
2024/01/29 00:28:24;;;;;;;0.45;0.45;;;;;;;1.77;100.00;102337.41;5092426;28;20103;-57
2024/01/29 00:30:49;;;;;;;0.35;0.35;;;;;;;1.75;100.00;102344.03;5092951;28;20101;-57
2024/01/29 00:33:15;;;;;;;0.40;0.40;;;;;;;1.68;100.00;102339.16;5091802;28;20059;-57
2024/01/29 00:35:40;;;;;;;0.50;0.50;;;;;;;1.71;100.00;102342.88;5093209;28;20052;-57
2024/01/29 00:38:05;;;;;;;0.50;0.50;;;;;;;1.76;100.00;102335.66;5092553;28;20030;-57
2024/01/29 00:40:32;;;;;;;0.40;0.40;;;;;;;1.61;100.00;102336.09;5091925;28;20036;-57
2024/01/29 00:42:58;;;;;;;0.40;0.40;;;;;;;1.62;100.00;102332.75;5092873;28;20028;-57
2024/01/29 00:45:24;;;;;;;0.40;0.40;;;;;;;1.69;100.00;102338.41;5092026;28;20041;-57
2024/01/29 00:47:49;;;;;;;0.45;0.45;;;;;;;1.76;100.00;102330.56;5091854;28;20051;-57
2024/01/29 00:50:14;;;;;;;0.40;0.40;;;;;;;1.70;100.00;102330.03;5092381;28;20070;-57
2024/01/29 00:52:39;;;;;;;0.47;0.47;;;;;;;1.66;100.00;102322.88;5092796;28;20028;-57
2024/01/29 00:55:05;;;;;;;0.40;0.40;;;;;;;1.55;100.00;102327.91;5091793;28;20029;-57
2024/01/29 00:57:31;;;;;;;0.40;0.40;;;;;;;1.56;100.00;102332.22;5092467;28;20490;-57
2024/01/29 00:59:56;;;;;;;0.50;0.50;;;;;;;1.56;100.00;102327.16;5092455;28;20036;-57
2024/01/29 01:02:21;;;;;;;0.40;0.40;;;;;;;1.53;100.00;102334.47;5091704;28;20024;-57
2024/01/29 01:04:47;;;;;;;0.35;0.35;;;;;;;1.47;100.00;102332.28;5092575;28;20028;-57
2024/01/29 01:07:12;;;;;;;0.38;0.38;;;;;;;1.47;100.00;102341.53;5092464;28;20035;-57
2024/01/29 01:09:37;;;;;;;0.40;0.40;;;;;;;1.52;100.00;102353.00;5091724;28;20387;-57
2024/01/29 01:12:03;;;;;;;0.50;0.50;;;;;;;1.40;100.00;102360.41;5092710;28;20042;-57
2024/01/29 01:14:29;;;;;;;0.40;0.40;;;;;;;1.30;100.00;102361.25;5092073;28;20027;-57
2024/01/29 01:16:54;;;;;;;0.30;0.30;;;;;;;1.22;100.00;102361.28;5091899;28;20032;-57
2024/01/29 01:19:19;;;;;;;0.50;0.50;;;;;;;1.21;100.00;102368.00;5092224;28;20093;-57
2024/01/29 01:21:45;;;;;;;0.32;0.32;;;;;;;1.11;100.00;102373.91;5092660;28;20031;-57
2024/01/29 01:24:10;;;;;;;0.40;0.40;;;;;;;1.04;100.00;102370.66;5093622;28;20156;-57
2024/01/29 01:26:36;;;;;;;0.40;0.40;;;;;;;1.01;100.00;102371.25;5096017;28;20448;-58
2024/01/29 01:29:01;;;;;;;0.50;0.50;;;;;;;0.92;100.00;102367.88;5096116;28;20031;-57
2024/01/29 01:31:26;;;;;;;0.47;0.47;;;;;;;0.89;100.00;102370.09;5094860;28;20031;-57
2024/01/29 01:33:52;;;;;;;0.40;0.40;;;;;;;0.82;100.00;102366.09;5096009;28;20016;-57
2024/01/29 01:36:17;;;;;;;0.50;0.50;;;;;;;0.75;100.00;102372.25;5095650;28;20028;-57
2024/01/29 01:38:42;;;;;;;0.50;0.50;;;;;;;0.73;100.00;102368.66;5095423;28;20031;-57
2024/01/29 01:41:07;;;;;;;0.50;0.50;;;;;;;0.74;100.00;102367.03;5095694;28;20365;-57
2024/01/29 01:43:33;;;;;;;0.50;0.50;;;;;;;0.72;100.00;102369.41;5094741;28;20106;-57
2024/01/29 01:46:12;;;;;;;0.40;0.40;;;;;;;0.64;100.00;102373.78;5095609;28;20048;-57
2024/01/29 01:48:38;;;;;;;0.50;0.50;;;;;;;0.64;100.00;102373.78;5095435;28;20086;-57
2024/01/29 01:51:04;;;;;;;0.50;0.50;;;;;;;0.65;100.00;102367.94;5094756;28;20024;-57
2024/01/29 01:53:32;;;;;;;0.40;0.40;;;;;;;0.63;100.00;102371.09;5095084;28;20055;-57
2024/01/29 01:56:01;;;;;;;0.40;0.40;;;;;;;0.68;100.00;102366.47;5095615;28;20048;-57
2024/01/29 01:58:32;;;;;;;0.50;0.50;;;;;;;0.78;100.00;102381.81;5094430;28;20066;-57
2024/01/29 02:00:58;;;;;;;0.40;0.40;;;;;;;0.74;100.00;102367.03;5095174;28;20107;-57
2024/01/29 02:03:24;;;;;;;0.40;0.40;;;;;;;0.73;100.00;102365.25;5094988;28;20099;-57
2024/01/29 02:05:49;;;;;;;0.50;0.50;;;;;;;0.65;100.00;102373.03;5094443;28;20016;-57
2024/01/29 02:08:16;;;;;;;0.30;0.30;;;;;;;0.66;100.00;102376.47;5094815;28;20152;-57
2024/01/29 02:10:42;;;;;;;0.40;0.40;;;;;;;0.68;100.00;102362.28;5095243;28;20036;-57
2024/01/29 02:13:13;;;;;;;0.50;0.50;;;;;;;0.65;100.00;102373.03;5094373;28;20043;-57
2024/01/29 02:15:39;;;;;;;0.38;0.38;;;;;;;0.72;100.00;102368.53;5095096;28;20047;-57
2024/01/29 02:18:04;;;;;;;0.40;0.40;;;;;;;0.70;100.00;102365.84;5095180;28;20457;-57
2024/01/29 02:20:31;;;;;;;0.50;0.50;;;;;;;0.63;100.00;102364.41;5093796;28;20084;-57
2024/01/29 02:22:57;;;;;;;0.40;0.40;;;;;;;0.71;100.00;102359.13;5094843;28;20020;-57
2024/01/29 02:25:22;;;;;;;0.50;0.50;;;;;;;0.59;100.00;102369.91;5094502;28;20107;-57
2024/01/29 02:27:47;;;;;;;0.43;0.43;;;;;;;0.61;100.00;102377.69;5094223;28;20020;-57
2024/01/29 02:30:13;;;;;;;0.40;0.40;;;;;;;0.60;100.00;102370.81;5094601;28;20016;-57
2024/01/29 02:32:39;;;;;;;0.47;0.47;;;;;;;0.53;100.00;102365.91;5093884;28;20032;-57
2024/01/29 02:35:04;;;;;;;0.40;0.40;;;;;;;0.61;100.00;102365.00;5093767;28;20069;-57
2024/01/29 02:37:30;;;;;;;0.50;0.50;;;;;;;0.57;100.00;102360.34;5094610;28;20055;-57
2024/01/29 02:39:55;;;;;;;0.50;0.50;;;;;;;0.59;100.00;102351.25;5093966;28;20028;-57
2024/01/29 02:42:21;;;;;;;0.50;0.50;;;;;;;0.57;100.00;102368.88;5094403;28;20020;-57
2024/01/29 02:44:46;;;;;;;0.47;0.47;;;;;;;0.50;100.00;102366.50;5094513;28;20430;-57
2024/01/29 02:47:12;;;;;;;0.50;0.50;;;;;;;0.45;100.00;102376.22;5093523;28;20024;-57
2024/01/29 02:49:37;;;;;;;0.40;0.40;;;;;;;0.44;100.00;102368.44;5094275;28;20085;-57
2024/01/29 02:52:04;;;;;;;0.43;0.43;;;;;;;0.38;100.00;102360.28;5094585;28;20020;-57
2024/01/29 02:54:29;;;;;;;0.50;0.50;;;;;;;0.37;100.00;102364.44;5093650;28;20134;-57
2024/01/29 02:56:54;;;;;;;0.50;0.50;;;;;;;0.31;100.00;102364.75;5094448;28;20485;-57
2024/01/29 02:59:19;;;;;;;0.40;0.40;;;;;;;0.22;100.00;102362.97;5094157;28;20456;-57
2024/01/29 03:01:45;;;;;;;0.50;0.50;;;;;;;0.24;100.00;102361.50;5093401;28;20021;-57
2024/01/29 03:04:10;;;;;;;0.40;0.40;;;;;;;0.20;100.00;102359.41;5093789;28;20555;-57
2024/01/29 03:06:35;;;;;;;0.40;0.40;;;;;;;0.19;100.00;102353.44;5093964;28;20035;-57
2024/01/29 03:09:01;;;;;;;0.40;0.40;;;;;;;0.21;100.00;102351.03;5093381;28;20567;-57
2024/01/29 03:11:26;;;;;;;0.50;0.50;;;;;;;0.27;100.00;102351.63;5093655;28;20020;-57
2024/01/29 03:13:51;;;;;;;0.40;0.40;;;;;;;0.19;100.00;102361.03;5094130;28;20028;-57
2024/01/29 03:16:16;;;;;;;0.40;0.40;;;;;;;0.17;100.00;102365.09;5092937;28;20121;-58
2024/01/29 03:18:42;;;;;;;0.40;0.40;;;;;;;0.11;100.00;102361.97;5093714;28;20049;-57
2024/01/29 03:21:07;;;;;;;0.50;0.50;;;;;;;0.14;100.00;102364.78;5093762;28;20095;-58
2024/01/29 03:23:32;;;;;;;0.40;0.40;;;;;;;0.05;100.00;102357.19;5092735;28;20388;-57
2024/01/29 03:25:57;;;;;;;0.43;0.43;;;;;;;0.07;100.00;102362.41;5093686;28;20028;-58
2024/01/29 03:28:23;;;;;;;0.50;0.50;;;;;;;0.07;100.00;102354.81;5093407;28;20025;-57
2024/01/29 03:30:48;;;;;;;0.50;0.50;;;;;;;0.06;100.00;102358.97;5092906;28;20028;-57
2024/01/29 03:33:13;;;;;;;0.50;0.50;;;;;;;0.05;100.00;102368.97;5093397;28;20460;-57
2024/01/29 03:35:39;;;;;;;0.45;0.45;;;;;;;-0.02;100.00;102365.84;5093529;28;20032;-57
2024/01/29 03:38:04;;;;;;;0.50;0.50;;;;;;;-0.06;100.00;102361.22;5092965;28;20043;-57
2024/01/29 03:40:29;;;;;;;0.40;0.40;;;;;;;-0.05;100.00;102363.00;5093255;28;20486;-57
2024/01/29 03:42:54;;;;;;;0.40;0.40;;;;;;;-0.02;100.00;102373.44;5092923;28;20090;-57
2024/01/29 03:45:20;;;;;;;0.50;0.50;;;;;;;-0.06;100.00;102373.00;5092688;28;20040;-57
2024/01/29 03:47:45;;;;;;;0.40;0.40;;;;;;;-0.03;100.00;102366.59;5093266;28;20024;-57
2024/01/29 03:50:10;;;;;;;0.50;0.50;;;;;;;-0.04;100.00;102374.94;5092344;28;20035;-57
2024/01/29 03:52:36;;;;;;;0.50;0.50;;;;;;;-0.11;100.00;102371.66;5093517;28;20032;-57
2024/01/29 03:55:01;;;;;;;0.50;0.50;;;;;;;-0.03;100.00;102371.69;5093459;28;20067;-57
2024/01/29 03:57:26;;;;;;;0.50;0.50;;;;;;;-0.08;100.00;102374.50;5092285;28;20020;-57
2024/01/29 03:59:54;;;;;;;0.50;0.50;;;;;;;-0.01;100.00;102370.16;5093062;28;20092;-57
2024/01/29 04:02:19;;;;;;;0.50;0.50;;;;;;;-0.07;100.00;102377.16;5092981;28;20028;-57
2024/01/29 04:04:45;;;;;;;0.40;0.40;;;;;;;-0.08;100.00;102377.03;5092316;28;20016;-57
2024/01/29 04:07:10;;;;;;;0.40;0.40;;;;;;;-0.08;100.00;102377.94;5093010;28;20020;-57
2024/01/29 04:09:35;;;;;;;0.50;0.50;;;;;;;-0.14;100.00;102377.34;5093249;28;20360;-57
2024/01/29 04:12:00;;;;;;;0.47;0.47;;;;;;;-0.11;100.00;102384.34;5092268;28;20495;-57
2024/01/29 04:14:28;;;;;;;0.40;0.40;;;;;;;-0.09;100.00;102375.22;5092809;28;20020;-57
2024/01/29 04:16:53;;;;;;;0.50;0.50;;;;;;;-0.11;100.00;102382.69;5092970;28;20020;-57
2024/01/29 04:19:19;;;;;;;0.40;0.40;;;;;;;-0.13;100.00;102379.13;5091687;28;20025;-57
2024/01/29 04:21:44;;;;;;;0.40;0.40;;;;;;;-0.17;100.00;102371.94;5093138;28;20454;-57
2024/01/29 04:24:13;;;;;;;0.50;0.50;;;;;;;-0.15;100.00;102378.06;5092751;28;20070;-57
2024/01/29 04:26:42;;;;;;;0.40;0.40;;;;;;;-0.16;100.00;102373.75;5092374;28;20108;-57
2024/01/29 04:29:08;;;;;;;0.40;0.40;;;;;;;-0.11;100.00;102386.88;5092862;28;20030;-57
2024/01/29 04:31:34;;;;;;;0.40;0.40;;;;;;;-0.14;100.00;102387.47;5092548;28;20111;-57
2024/01/29 04:34:00;;;;;;;0.40;0.40;;;;;;;-0.14;100.00;102387.47;5092032;28;20024;-57
2024/01/29 04:36:25;;;;;;;0.50;0.50;;;;;;;-0.16;100.00;102378.81;5092747;28;20494;-57
2024/01/29 04:38:51;;;;;;;0.40;0.40;;;;;;;-0.20;100.00;102382.69;5092823;28;20468;-57
2024/01/29 04:41:20;;;;;;;0.40;0.40;;;;;;;-0.15;100.00;102390.75;5091668;28;20368;-57
2024/01/29 04:43:46;;;;;;;0.50;0.50;;;;;;;-0.18;100.00;102391.34;5092723;28;20028;-57
2024/01/29 04:46:11;;;;;;;0.45;0.45;;;;;;;-0.15;100.00;102384.78;5091964;28;20050;-57
2024/01/29 04:48:38;;;;;;;0.50;0.50;;;;;;;-0.25;100.00;102385.53;5092524;28;20066;-57
2024/01/29 04:51:07;;;;;;;0.40;0.40;;;;;;;-0.21;100.00;102387.59;5092643;28;20478;-57
2024/01/29 04:53:33;;;;;;;0.60;0.60;;;;;;;-0.26;100.00;102392.25;5091598;28;20070;-57
2024/01/29 04:56:01;;;;;;;0.40;0.40;;;;;;;-0.29;100.00;102391.03;5092729;28;20149;-57
2024/01/29 04:58:27;;;;;;;0.50;0.50;;;;;;;-0.25;100.00;102394.00;5093633;28;20506;-57
2024/01/29 05:00:53;;;;;;;0.50;0.50;;;;;;;-0.34;100.00;102393.09;5095721;28;20115;-57
2024/01/29 05:03:18;;;;;;;0.50;0.50;;;;;;;-0.35;100.00;102389.69;5096433;28;20016;-57
2024/01/29 05:05:44;;;;;;;0.45;0.45;;;;;;;-0.38;100.00;102391.91;5096631;28;20101;-57
2024/01/29 05:08:09;;;;;;;0.60;0.60;;;;;;;-0.42;100.00;102383.88;5095347;28;20027;-57
2024/01/29 05:10:34;;;;;;;0.60;0.60;;;;;;;-0.36;100.00;102380.28;5096548;28;20067;-57
2024/01/29 05:13:00;;;;;;;0.50;0.50;;;;;;;-0.26;100.00;102378.66;5096430;28;20110;-57
2024/01/29 05:15:27;;;;;;;0.52;0.52;;;;;;;-0.31;100.00;102379.84;5095249;28;20178;-57
2024/01/29 05:17:52;;;;;;;0.50;0.50;;;;;;;-0.37;100.00;102388.63;5096179;28;20094;-57
2024/01/29 05:20:17;;;;;;;0.50;0.50;;;;;;;-0.41;100.00;102375.53;5095999;28;20059;-57
2024/01/29 05:22:43;;;;;;;0.40;0.40;;;;;;;-0.36;100.00;102380.28;5095495;28;20475;-57
2024/01/29 05:25:08;;;;;;;0.60;0.60;;;;;;;-0.36;100.00;102385.38;5096069;28;20028;-57
2024/01/29 05:27:34;;;;;;;0.50;0.50;;;;;;;-0.33;100.00;102389.84;5095933;28;20022;-57
2024/01/29 05:29:59;;;;;;;0.40;0.40;;;;;;;-0.40;100.00;102380.75;5095221;28;20060;-57
2024/01/29 05:32:24;;;;;;;0.60;0.60;;;;;;;-0.30;100.00;102381.63;5095573;28;20375;-57
2024/01/29 05:34:50;;;;;;;0.40;0.40;;;;;;;-0.32;100.00;102383.13;5096091;28;20024;-57
2024/01/29 05:37:15;;;;;;;0.50;0.50;;;;;;;-0.33;100.00;102374.63;5094892;28;20024;-57
2024/01/29 05:39:41;;;;;;;0.50;0.50;;;;;;;-0.36;100.00;102384.47;5095986;28;20024;-57
2024/01/29 05:42:06;;;;;;;0.40;0.40;;;;;;;-0.38;100.00;102384.31;5095778;28;20027;-57
2024/01/29 05:44:32;;;;;;;0.50;0.50;;;;;;;-0.40;100.00;102387.44;5094647;28;20052;-57
2024/01/29 05:46:57;;;;;;;0.50;0.50;;;;;;;-0.40;100.00;102390.88;5095765;28;20032;-57
2024/01/29 05:49:22;;;;;;;0.50;0.50;;;;;;;-0.34;100.00;102385.50;5095278;28;20020;-57
2024/01/29 05:51:48;;;;;;;0.50;0.50;;;;;;;-0.38;100.00;102394.44;5094957;28;20055;-57
2024/01/29 05:54:13;;;;;;;0.40;0.40;;;;;;;-0.30;100.00;102389.25;5095277;28;20499;-57
2024/01/29 05:56:42;;;;;;;0.40;0.40;;;;;;;-0.27;100.00;102392.97;5094807;28;20036;-57
2024/01/29 05:59:08;;;;;;;0.40;0.40;;;;;;;-0.23;100.00;102396.72;5095478;28;20024;-57
2024/01/29 06:01:34;;;;;;;0.50;0.50;;;;;;;-0.21;100.00;102397.75;5095625;28;20115;-57
2024/01/29 06:03:59;;;;;;;0.40;0.40;;;;;;;-0.21;100.00;102398.66;5094731;28;20103;-57
2024/01/29 06:06:24;;;;;;;0.50;0.50;;;;;;;-0.19;100.00;102399.69;5095108;28;20337;-57
2024/01/29 06:08:49;;;;;;;0.50;0.50;;;;;;;-0.16;100.00;102409.22;5094898;28;20020;-57
2024/01/29 06:11:15;;;;;;;0.50;0.50;;;;;;;-0.18;100.00;102405.66;5093218;28;20357;-57
2024/01/29 06:13:40;;;;;;;0.40;0.40;;;;;;;-0.20;100.00;102404.59;5095211;28;20028;-57
2024/01/29 06:16:05;;;;;;;0.50;0.50;;;;;;;-0.06;100.00;102404.31;5095034;28;20415;-57
2024/01/29 06:18:31;;;;;;;0.50;0.50;;;;;;;-0.09;100.00;102414.16;5094107;28;20031;-57
2024/01/29 06:20:56;;;;;;;0.40;0.40;;;;;;;-0.12;100.00;102408.78;5094843;28;20031;-58
2024/01/29 06:23:21;;;;;;;0.50;0.50;;;;;;;-0.10;100.00;102417.44;5094281;28;20042;-60
2024/01/29 06:25:47;;;;;;;0.50;0.50;;;;;;;-0.10;100.00;102412.38;5094397;28;20105;-57
2024/01/29 06:28:12;;;;;;;0.40;0.40;;;;;;;0.00;100.00;102404.03;5094558;28;20016;-58
2024/01/29 06:30:37;;;;;;;0.50;0.50;;;;;;;0.00;100.00;102409.09;5094836;28;20411;-57
2024/01/29 06:33:03;;;;;;;0.60;0.60;;;;;;;0.03;100.00;102421.16;5094362;28;20024;-57
2024/01/29 06:35:28;;;;;;;0.40;0.40;;;;;;;0.10;100.00;102418.47;5094581;28;20035;-57
2024/01/29 06:37:54;;;;;;;0.50;0.50;;;;;;;0.18;100.00;102415.03;5095002;28;20028;-57
2024/01/29 06:40:22;;;;;;;0.50;0.50;;;;;;;0.19;100.00;102419.34;5093440;28;20036;-57
2024/01/29 06:42:48;;;;;;;0.50;0.50;;;;;;;0.25;100.00;102425.03;5094599;28;20052;-57
2024/01/29 06:45:13;;;;;;;0.50;0.50;;;;;;;0.26;100.00;102434.44;5094083;28;20072;-57
2024/01/29 06:47:38;;;;;;;0.47;0.47;;;;;;;0.24;100.00;102433.38;5093882;28;20057;-57
2024/01/29 06:50:04;;;;;;;0.40;0.40;;;;;;;0.21;100.00;102424.56;5094561;28;20062;-57
2024/01/29 06:52:29;;;;;;;0.40;0.40;;;;;;;0.25;100.00;102421.63;5094198;28;20035;-57
2024/01/29 06:54:55;;;;;;;0.50;0.50;;;;;;;0.26;100.00;102418.31;5093710;28;20020;-57
2024/01/29 06:57:20;;;;;;;0.50;0.50;;;;;;;0.33;100.00;102428.31;5094087;28;20042;-57
2024/01/29 06:59:45;;;;;;;0.45;0.45;;;;;;;0.36;100.00;102427.72;5094104;28;20371;-57
2024/01/29 07:02:11;;;;;;;0.43;0.43;;;;;;;0.39;100.00;102433.06;5093304;28;20027;-57
2024/01/29 07:04:36;;;;;;;0.40;0.40;;;;;;;0.39;100.00;102433.97;5094232;28;20434;-57
2024/01/29 07:07:02;;;;;;;0.50;0.50;;;;;;;0.34;100.00;102435.19;5093367;28;20107;-57
2024/01/29 07:09:27;;;;;;;0.50;0.50;;;;;;;0.39;100.00;102443.22;5093780;28;20032;-57
2024/01/29 07:11:52;;;;;;;0.50;0.50;;;;;;;0.35;100.00;102441.13;5094095;28;20020;-57
2024/01/29 07:14:18;;;;;;;0.50;0.50;;;;;;;0.29;100.00;102447.41;5092718;28;20028;-57
2024/01/29 07:16:43;;;;;;;0.40;0.40;;;;;;;0.35;100.00;102446.19;5094108;28;20541;-57
2024/01/29 07:19:09;;;;;;;0.40;0.40;;;;;;;0.35;100.00;102452.19;5094126;28;20114;-57
2024/01/29 07:21:34;;;;;;;0.50;0.50;;;;;;;0.36;100.00;102458.13;5092752;28;20095;-57
2024/01/29 07:23:59;;;;;;;0.40;0.40;;;;;;;0.36;100.00;102455.59;5093770;28;20103;-57
2024/01/29 07:26:25;;;;;;;0.40;0.40;;;;;;;0.36;100.00;102459.03;5093443;28;20103;-57
2024/01/29 07:28:50;;;;;;;0.40;0.40;;;;;;;0.38;100.00;102456.66;5092956;28;20537;-57
2024/01/29 07:31:17;;;;;;;0.50;0.50;;;;;;;0.41;100.00;102456.94;5093455;28;20529;-57
2024/01/29 07:33:43;;;;;;;0.50;0.50;;;;;;;0.44;100.00;102464.84;5093985;28;20043;-57
2024/01/29 07:36:08;;;;;;;0.40;0.40;;;;;;;0.42;100.00;102463.81;5092728;28;20028;-57
2024/01/29 07:38:33;;;;;;;0.40;0.40;;;;;;;0.51;100.00;102461.28;5093197;28;20452;-57
2024/01/29 07:40:59;;;;;;;0.50;0.50;;;;;;;0.69;100.00;102465.56;5093523;28;20107;-57
2024/01/29 07:43:24;;;;;;;0.50;0.50;;;;;;;0.65;100.00;102464.38;5092429;28;20107;-57
2024/01/29 07:45:50;;;;;;;0.40;0.40;;;;;;;0.76;100.00;102475.56;5093267;28;20044;-57
2024/01/29 07:48:15;;;;;;;0.50;0.50;;;;;;;0.78;100.00;102471.50;5093262;28;20077;-57
2024/01/29 07:50:40;;;;;;;0.50;0.50;;;;;;;0.84;100.00;102478.84;5092680;28;20054;-57
2024/01/29 07:53:06;;;;;;;0.50;0.50;;;;;;;1.04;100.00;102482.38;5093310;28;20399;-57
2024/01/29 07:55:31;;;;;;;0.40;0.40;;;;;;;1.10;100.00;102480.41;5092918;28;20035;-57
2024/01/29 07:57:56;;;;;;;0.50;0.50;;;;;;;1.17;100.00;102485.28;5092361;28;20028;-57
2024/01/29 08:00:22;;;;;;;0.43;0.43;;;;;;;1.24;100.00;102487.69;5092895;28;20073;-57
2024/01/29 08:02:47;;;;;;;0.40;0.40;;;;;;;1.39;100.00;102484.78;5093127;28;20020;-57
2024/01/29 08:05:12;;;;;;;0.40;0.40;;;;;;;1.52;100.00;102487.69;5092040;28;20036;-57
2024/01/29 08:07:38;;;;;;;0.38;0.38;;;;;;;1.76;100.00;102483.09;5092998;28;20016;-57
2024/01/29 08:10:04;;;;;;;0.50;0.50;;;;;;;1.93;100.00;102479.53;5093161;28;20043;-57
2024/01/29 08:12:29;;;;;;;0.40;0.40;;;;;;;2.09;100.00;102484.34;5092084;28;20062;-57
2024/01/29 08:14:55;;;;;;;0.40;0.40;;;;;;;2.21;100.00;102480.38;5092763;28;20434;-57
2024/01/29 08:17:20;;;;;;;0.43;0.43;;;;;;;2.46;100.00;102485.13;5092036;28;20028;-57
2024/01/29 08:19:45;;;;;;;0.50;0.50;;;;;;;2.59;100.00;102485.44;5093132;28;20028;-57
2024/01/29 08:22:11;;;;;;;0.40;0.40;;;;;;;2.74;100.00;102491.00;5092745;28;20154;-57
2024/01/29 08:24:39;;;;;;;0.50;0.50;;;;;;;2.88;100.00;102489.66;5091967;28;20317;-57
2024/01/29 08:27:04;;;;;;;0.32;0.32;;;;;;;3.05;100.00;102493.66;5092783;28;20036;-57
2024/01/29 08:29:29;;;;;;;0.35;0.35;;;;;;;3.20;100.00;102498.28;5092415;28;20048;-57
2024/01/29 08:31:55;;;;;;;0.45;0.45;;;;;;;3.31;100.00;102504.34;5092139;28;20085;-57
2024/01/29 08:34:20;;;;;;;0.40;0.40;;;;;;;3.42;100.00;102496.84;5095760;28;20360;-57
2024/01/29 08:36:45;;;;;;;0.40;0.40;;;;;;;3.53;100.00;102492.63;5097113;28;20020;-57
2024/01/29 08:39:11;;;;;;;0.30;0.30;;;;;;;3.63;100.00;102492.66;5095600;28;20035;-57
2024/01/29 08:41:36;;;;;;;0.40;0.40;;;;;;;3.73;100.00;102493.41;5096864;28;20107;-57
2024/01/29 08:44:03;;;;;;;0.30;0.30;;;;;;;3.81;100.00;102492.41;5096373;28;20027;-57
2024/01/29 08:46:28;;;;;;;0.40;0.40;;;;;;;3.88;100.00;102489.59;5095928;28;20028;-57
2024/01/29 08:48:54;;;;;;;0.30;0.30;;;;;;;3.99;100.00;102493.06;5096287;28;20028;-57
2024/01/29 08:51:19;;;;;;;0.40;0.40;;;;;;;4.08;100.00;102491.25;5096357;28;20051;-57
2024/01/29 08:53:44;;;;;;;0.30;0.30;;;;;;;4.13;100.00;102486.50;5095695;28;20024;-57
2024/01/29 08:56:10;;;;;;;0.30;0.30;;;;;;;4.19;100.00;102492.13;5096399;28;20027;-57
2024/01/29 08:58:35;;;;;;;0.30;0.30;;;;;;;4.28;100.00;102487.78;5096480;28;20441;-56
2024/01/29 09:01:02;;;;;;;0.30;0.30;;;;;;;4.35;100.00;102489.19;5095800;28;20035;-57
2024/01/29 09:03:27;;;;;;;0.50;0.50;;;;;;;4.43;100.00;102492.38;5096246;28;20028;-57
2024/01/29 09:05:53;;;;;;;0.40;0.40;;;;;;;4.50;100.00;102489.53;5095715;28;20396;-57
2024/01/29 09:08:19;;;;;;;0.40;0.40;;;;;;;4.54;100.00;102481.34;5095323;28;20114;-57
2024/01/29 09:10:44;;;;;;;0.30;0.30;;;;;;;4.64;100.00;102482.97;5096109;28;20475;-57
2024/01/29 09:13:09;;;;;;;0.40;0.40;;;;;;;4.73;100.00;102480.28;5095571;28;20028;-57
2024/01/29 09:15:34;;;;;;;0.40;0.40;;;;;;;4.75;100.00;102486.38;5094939;28;20046;-57
2024/01/29 09:18:00;;;;;;;0.40;0.40;;;;;;;4.80;100.00;102485.06;5095136;28;20035;-58
2024/01/29 09:20:27;;;;;;;0.40;0.40;;;;;;;4.87;100.00;102487.38;5095341;28;20043;-58
2024/01/29 09:22:53;;;;;;;0.30;0.30;;;;;;;4.90;100.00;102482.47;5095260;28;20411;-58
2024/01/29 09:25:18;;;;;;;0.40;0.40;;;;;;;4.95;100.00;102493.06;5095503;28;20053;-57
2024/01/29 09:27:43;;;;;;;0.30;0.30;;;;;;;4.96;100.00;102487.19;5095239;28;20020;-57
2024/01/29 09:30:09;;;;;;;0.40;0.40;;;;;;;5.02;100.00;102491.88;5096208;28;20020;-57
2024/01/29 09:32:35;;;;;;;0.25;0.25;;;;;;;5.07;100.00;102495.69;5095834;28;20032;-57
2024/01/29 09:35:00;;;;;;;0.40;0.40;;;;;;;5.15;100.00;102497.22;5095229;28;20077;-57
2024/01/29 09:37:25;;;;;;;0.40;0.40;;;;;;;5.26;100.00;102485.25;5095532;28;20020;-58
2024/01/29 09:39:50;;;;;;;0.30;0.30;;;;;;;5.41;100.00;102498.31;5095619;28;20053;-57
2024/01/29 09:42:17;;;;;;;0.30;0.30;;;;;;;5.54;100.00;102500.16;5094603;28;20472;-58
2024/01/29 09:44:45;;;;;;;0.30;0.30;;;;;;;5.66;100.00;102507.91;5095363;28;20514;-58
2024/01/29 09:47:12;;;;;;;0.30;0.30;;;;;;;5.86;100.00;102512.88;5095571;28;20024;-58
2024/01/29 09:49:38;;;;;;;0.30;0.30;;;;;;;6.09;100.00;102508.59;5094775;28;20104;-58
2024/01/29 09:52:04;;;;;;;0.30;0.30;;;;;;;6.26;100.00;102513.31;5095674;28;20095;-58
2024/01/29 09:54:30;;;;;;;0.40;0.40;;;;;;;6.42;100.00;102505.06;5094768;28;20028;-58
2024/01/29 09:56:56;;;;;;;0.40;0.40;;;;;;;6.59;100.00;102502.84;5094619;28;20844;-57
2024/01/29 09:59:22;;;;;;;0.30;0.30;;;;;;;6.67;100.00;102503.41;5095067;28;20120;-58
2024/01/29 10:01:49;;;;;;;0.35;0.35;;;;;;;6.74;100.00;102509.09;5095457;28;20024;-58
2024/01/29 10:04:14;;;;;;;0.38;0.38;;;;;;;6.87;100.00;102504.84;5094052;28;20029;-58
2024/01/29 10:06:39;;;;;;;0.30;0.30;;;;;;;6.92;100.00;102512.06;5095289;28;20027;-58
2024/01/29 10:09:05;;;;;;;0.30;0.30;;;;;;;7.00;100.00;102517.75;5095269;28;20027;-57
2024/01/29 10:11:30;;;;;;;0.30;0.30;;;;;;;7.05;100.00;102511.28;5094158;28;20505;-58
2024/01/29 10:13:59;;;;;;;0.32;0.32;;;;;;;7.20;100.00;102525.97;5095998;28;20028;-57
2024/01/29 10:16:27;;;;;;;0.30;0.30;;;;;;;7.36;100.00;102526.25;5094909;28;20435;-58
2024/01/29 10:18:59;;;;;;;0.30;0.30;;;;;;;7.62;100.00;102521.13;5094260;28;20541;-57
2024/01/29 10:21:25;;;;;;;0.30;0.30;;;;;;;7.81;100.00;102524.19;5094866;28;20103;-58
2024/01/29 10:23:55;;;;;;;0.30;0.30;;;;;;;8.07;100.00;102527.63;5094221;28;20068;-58
2024/01/29 10:26:22;;;;;;;0.30;0.30;;;;;;;8.20;100.00;102535.34;5094841;28;20058;-57
2024/01/29 10:29:02;;;;;;;0.22;0.22;;;;;;;8.33;100.00;102534.47;5095115;28;20032;-58
2024/01/29 10:31:28;;;;;;;0.30;0.30;;;;;;;8.47;100.00;102535.41;5093903;28;20051;-58
2024/01/29 10:33:54;;;;;;;0.20;0.20;;;;;;;8.70;100.00;102534.34;5094782;28;20067;-58
2024/01/29 10:36:20;;;;;;;0.30;0.30;;;;;;;8.79;100.00;102536.63;5094174;28;20024;-58
2024/01/29 10:38:46;;;;;;;0.30;0.30;;;;;;;9.00;100.00;102534.50;5093826;28;20024;-58
2024/01/29 10:41:16;;;;;;;0.30;0.30;;;;;;;9.04;100.00;102538.19;5094116;28;20024;-58
2024/01/29 10:43:46;;;;;;;0.25;0.25;;;;;;;9.08;100.00;102537.56;5094152;28;20080;-58
2024/01/29 10:46:12;;;;;;;0.28;0.28;;;;;;;9.05;100.00;102534.78;5093368;28;20052;-58
2024/01/29 10:48:40;;;;;;;0.20;0.20;;;;;;;9.27;100.00;102531.00;5094426;28;20490;-57
2024/01/29 10:51:07;;;;;;;0.25;0.25;;;;;;;9.22;98.94;102541.00;5094585;28;20028;-57
2024/01/29 10:53:33;;;;;;;0.30;0.30;;;;;;;9.46;99.38;102539.03;5093584;28;20106;-58
2024/01/29 10:56:00;;;;;;;0.30;0.30;;;;;;;9.47;97.12;102540.81;5093591;28;20103;-58
2024/01/29 10:58:27;;;;;;;0.30;0.30;;;;;;;9.51;96.15;102535.06;5094116;28;20031;-58
2024/01/29 11:00:53;;;;;;;0.20;0.20;;;;;;;9.66;98.59;102539.41;5093438;28;20506;-58
2024/01/29 11:03:21;;;;;;;0.30;0.30;;;;;;;9.85;97.52;102537.13;5093388;28;20028;-58
2024/01/29 11:05:55;;;;;;;0.30;0.30;;;;;;;9.97;94.25;102541.22;5094185;28;20039;-58
2024/01/29 11:08:25;;;;;;;0.20;0.20;;;;;;;9.92;95.66;102543.53;5092945;28;20024;-58
2024/01/29 11:10:51;;;;;;;0.20;0.20;;;;;;;9.98;92.58;102537.81;5094291;28;20048;-58
2024/01/29 11:13:18;;;;;;;0.25;0.25;;;;;;;10.10;92.34;102536.00;5092954;28;20071;-58
2024/01/29 11:15:44;;;;;;;;;;;;;;;10.35;95.81;102537.41;5094303;28;20031;-58
2024/01/29 11:18:10;;;;;;;0.30;0.30;;;;;;;10.24;91.92;102538.47;5094022;28;19911;-58